Time;durP1;ratioP1;P1;durP2;ratioP2;P2;SDS_P1;SDS_P2;PMS_P1;PMS_P2;Temp;Humidity;BMP_temperature;BMP_pressure;BME280_temperature;BME280_humidity;BME280_pressure;Samples;Min_cycle;Max_cycle;Signal;HPM_P1;HPM_P2
2022/11/17 00:02:38;;;;;;;12.73;8.67;;;9.00;99.90;;;;;;10222084;29;20188;-92
2022/11/17 00:07:44;;;;;;;12.67;8.77;;;9.10;99.90;;;;;;10242878;28;20227;-92
2022/11/17 00:23:47;;;;;;;12.43;9.00;;;11.30;99.90;;;;;;10263311;29;20200;-91
2022/11/17 00:29:15;;;;;;;9.73;8.03;;;11.10;99.90;;;;;;10262988;29;20215;-91
2022/11/17 00:34:20;;;;;;;12.77;8.50;;;11.90;99.90;;;;;;10241970;29;20238;-93
2022/11/17 00:39:23;;;;;;;12.20;9.23;;;10.40;99.90;;;;;;10279231;28;20183;-92
2022/11/17 00:44:26;;;;;;;9.83;8.37;;;12.10;99.90;;;;;;10264033;29;20214;-92
2022/11/17 00:49:29;;;;;;;10.77;8.27;;;13.60;99.90;;;;;;10263417;29;20199;-93
2022/11/17 00:54:31;;;;;;;10.73;8.67;;;13.60;99.90;;;;;;10263714;29;20198;-93
2022/11/17 00:59:33;;;;;;;9.37;8.27;;;11.00;91.90;;;;;;10241625;29;20218;-93
2022/11/17 01:04:36;;;;;;;11.30;9.30;;;11.50;98.20;;;;;;10229046;29;20216;-93
2022/11/17 01:09:38;;;;;;;11.47;9.27;;;11.20;99.60;;;;;;10268760;28;20206;-92
2022/11/17 01:14:41;;;;;;;12.10;9.37;;;12.00;99.90;;;;;;10275265;29;20204;-92
2022/11/17 01:19:43;;;;;;;12.27;9.03;;;12.50;99.90;;;;;;10275607;29;20212;-93
2022/11/17 01:24:46;;;;;;;13.20;9.97;;;12.60;99.90;;;;;;10291837;28;20212;-92
2022/11/17 01:29:48;;;;;;;12.73;10.40;;;13.00;99.90;;;;;;10275778;29;20213;-93
2022/11/17 01:34:51;;;;;;;11.67;9.40;;;12.30;99.90;;;;;;10275207;29;20253;-92
2022/11/17 01:39:53;;;;;;;12.83;10.30;;;13.60;99.90;;;;;;10274958;28;20293;-92
2022/11/17 01:45:25;;;;;;;22.33;9.80;;;13.40;99.90;;;;;;10275985;28;20183;-93
2022/11/17 01:50:36;;;;;;;9.73;8.77;;;11.50;96.60;;;;;;10247212;28;20288;-92
2022/11/17 01:56:06;;;;;;;12.70;9.93;;;10.80;99.90;;;;;;10227380;29;20290;-93
2022/11/17 02:01:09;;;;;;;14.07;10.17;;;11.70;99.90;;;;;;10192824;29;20199;-92
2022/11/17 02:06:17;;;;;;;16.27;11.07;;;13.10;99.90;;;;;;10231069;29;20211;-93
2022/11/17 02:11:21;;;;;;;14.20;10.90;;;11.30;95.80;;;;;;10230310;29;20205;-93
2022/11/17 02:16:24;;;;;;;14.03;10.17;;;12.20;96.70;;;;;;10230533;29;20219;-93
2022/11/17 02:21:32;;;;;;;13.73;10.20;;;13.50;99.90;;;;;;10225352;29;20247;-92
2022/11/17 02:27:12;;;;;;;10.63;9.27;;;13.90;99.90;;;;;;10226525;29;20202;-92
2022/11/17 02:32:28;;;;;;;14.40;11.03;;;12.50;96.30;;;;;;10222870;29;20287;-92
2022/11/17 02:37:54;;;;;;;15.90;11.30;;;12.10;99.90;;;;;;10222204;29;20271;-93
2022/11/17 02:48:31;;;;;;;13.93;10.13;;;13.40;83.00;;;;;;10183377;29;20282;-93
2022/11/17 02:53:35;;;;;;;14.77;10.93;;;11.40;97.20;;;;;;10204055;29;20211;-92
2022/11/17 02:58:38;;;;;;;11.07;9.47;;;12.50;99.90;;;;;;10182022;29;20293;-92
2022/11/17 03:04:02;;;;;;;12.93;10.43;;;11.40;99.90;;;;;;10214580;29;20241;-93
2022/11/17 03:09:29;;;;;;;15.50;10.80;;;12.70;98.70;;;;;;10218884;29;20201;-93
2022/11/17 03:14:43;;;;;;;14.67;10.73;;;11.60;99.90;;;;;;10218220;29;20287;-93
2022/11/17 03:19:57;;;;;;;12.80;10.57;;;13.30;99.90;;;;;;10216036;29;20267;-92
2022/11/17 03:25:04;;;;;;;13.50;10.60;;;12.10;99.90;;;;;;10215619;29;20279;-93
2022/11/17 03:30:09;;;;;;;16.07;12.13;;;13.80;99.00;;;;;;10216391;29;20227;-92
2022/11/17 03:35:19;;;;;;;15.50;11.43;;;13.50;99.90;;;;;;10175762;29;20220;-93
2022/11/17 03:40:25;;;;;;;17.83;12.07;;;13.40;93.80;;;;;;10205948;29;20316;-94
2022/11/17 03:45:49;;;;;;;14.03;11.27;;;11.30;99.90;;;;;;10214854;29;20226;-93
2022/11/17 03:51:03;;;;;;;12.17;10.60;;;11.30;99.90;;;;;;10215343;29;20258;-93
2022/11/17 03:56:24;;;;;;;9.43;8.30;;;12.10;99.90;;;;;;10214755;29;20349;-93
2022/11/17 04:01:29;;;;;;;12.80;10.33;;;11.00;96.40;;;;;;10215246;29;20217;-93
2022/11/17 04:06:32;;;;;;;14.40;10.63;;;12.20;99.90;;;;;;10212794;29;20742;-93
2022/11/17 04:16:55;;;;;;;11.20;9.30;;;12.30;94.40;;;;;;10214335;29;20331;-93
2022/11/17 04:21:58;;;;;;;13.30;10.13;;;11.10;97.00;;;;;;10213033;29;20199;-92
2022/11/17 04:32:21;;;;;;;14.63;11.10;;;13.00;99.90;;;;;;10209655;29;20806;-93
2022/11/17 04:37:24;;;;;;;16.47;12.57;;;12.80;99.90;;;;;;10223481;29;20245;-94
2022/11/17 04:42:27;;;;;;;12.30;9.43;;;10.80;99.90;;;;;;10208799;29;20356;-92
2022/11/17 04:47:30;;;;;;;17.63;12.63;;;11.50;96.20;;;;;;10209058;29;20242;-92
2022/11/17 04:52:32;;;;;;;16.90;12.70;;;13.20;99.90;;;;;;10209307;29;20435;-92
2022/11/17 04:57:35;;;;;;;16.20;11.87;;;11.20;99.90;;;;;;10209115;29;20246;-93
2022/11/17 05:02:37;;;;;;;15.60;11.87;;;13.40;99.00;;;;;;10207635;29;20710;-92
2022/11/17 05:07:40;;;;;;;11.73;9.40;;;11.00;99.90;;;;;;10208959;29;20381;-92
2022/11/17 05:18:03;;;;;;;12.80;10.17;;;12.70;84.40;;;;;;10207840;29;20254;-92
2022/11/17 05:28:30;;;;;;;12.20;9.20;;;11.10;99.90;;;;;;10208680;29;20276;-93
2022/11/17 05:33:33;;;;;;;14.17;10.67;;;9.40;99.90;;;;;;10206334;29;20627;-93
2022/11/17 05:38:39;;;;;;;10.90;9.13;;;10.50;99.90;;;;;;10191987;29;20261;-92
2022/11/17 05:43:42;;;;;;;12.73;9.73;;;8.90;99.90;;;;;;10158514;29;20298;-93
2022/11/17 05:48:47;;;;;;;12.13;9.53;;;11.30;93.50;;;;;;10192075;29;20991;-93
2022/11/17 05:53:50;;;;;;;14.93;11.07;;;11.10;90.50;;;;;;10205959;29;20219;-92
2022/11/17 05:59:03;;;;;;;12.03;9.43;;;12.60;97.80;;;;;;10210159;29;20265;-92
2022/11/17 06:04:07;;;;;;;13.23;10.00;;;9.30;99.70;;;;;;10213430;29;20203;-93
2022/11/17 06:09:10;;;;;;;17.73;12.03;;;11.70;99.90;;;;;;10214344;29;20262;-92
2022/11/17 06:14:12;;;;;;;15.27;11.30;;;12.40;99.90;;;;;;10212080;29;20218;-92
2022/11/17 06:19:22;;;;;;;13.27;9.60;;;11.30;99.90;;;;;;10214903;29;20273;-92
2022/11/17 06:24:25;;;;;;;18.50;12.77;;;10.10;99.90;;;;;;10214531;29;20199;-93
2022/11/17 06:29:29;;;;;;;11.63;9.70;;;10.90;99.90;;;;;;10213328;29;20257;-92
2022/11/17 06:34:33;;;;;;;15.43;11.87;;;12.10;89.60;;;;;;10212264;29;20706;-92
2022/11/17 06:39:35;;;;;;;15.50;10.87;;;11.60;99.90;;;;;;10217195;29;20253;-93
2022/11/17 06:44:38;;;;;;;13.30;10.57;;;12.00;99.90;;;;;;10207606;29;20206;-92
2022/11/17 06:49:40;;;;;;;8.80;7.60;;;11.40;97.10;;;;;;10209594;29;20221;-96
2022/11/17 06:54:43;;;;;;;11.03;9.00;;;11.40;87.30;;;;;;10230818;28;20237;-96
2022/11/17 06:59:46;;;;;;;9.50;8.00;;;11.40;90.20;;;;;;10214636;29;20195;-96
2022/11/17 07:04:48;;;;;;;10.03;7.60;;;11.80;91.30;;;;;;10214361;29;20598;-95
2022/11/17 07:09:50;;;;;;;10.10;8.60;;;13.00;80.50;;;;;;10212888;29;20915;-96
2022/11/17 07:14:53;;;;;;;11.03;9.00;;;13.10;84.80;;;;;;10198429;29;20235;-96
2022/11/17 07:19:56;;;;;;;11.03;9.00;;;12.00;91.70;;;;;;10213235;29;20217;-96
2022/11/17 07:24:58;;;;;;;15.90;10.10;;;10.90;94.50;;;;;;10213014;29;20261;-96
2022/11/17 07:30:05;;;;;;;15.27;11.13;;;10.00;99.90;;;;;;10214466;29;20262;-95
2022/11/17 07:35:08;;;;;;;39.47;11.70;;;12.20;96.90;;;;;;10203812;29;20277;-90
2022/11/17 07:40:10;;;;;;;67.53;13.60;;;11.10;80.70;;;;;;10205825;29;20232;-91
2022/11/17 07:45:13;;;;;;;60.43;12.60;;;10.70;79.80;;;;;;10201881;29;20262;-90
2022/11/17 07:50:16;;;;;;;16.90;9.17;;;10.80;93.30;;;;;;10200702;29;20294;-90
2022/11/17 07:55:18;;;;;;;21.47;10.03;;;10.60;89.60;;;;;;10209409;29;20716;-91
2022/11/17 08:00:21;;;;;;;35.60;10.17;;;12.10;84.80;;;;;;10225084;28;20235;-90
2022/11/17 08:05:29;;;;;;;39.13;12.97;;;10.90;95.70;;;;;;10208359;29;20269;-90
2022/11/17 08:10:33;;;;;;;10.87;6.93;;;12.60;86.80;;;;;;10205820;29;20273;-90
2022/11/17 08:15:35;;;;;;;11.43;8.27;;;12.00;82.40;;;;;;10215796;28;20785;-90
2022/11/17 08:20:38;;;;;;;30.60;10.80;;;10.00;81.50;;;;;;10207684;29;20238;-90
2022/11/17 08:25:40;;;;;;;20.20;10.07;;;8.00;99.90;;;;;;10201756;29;20290;-90
2022/11/17 08:30:43;;;;;;;12.97;8.50;;;9.90;99.90;;;;;;10207491;29;20295;-90
2022/11/17 08:35:45;;;;;;;20.97;9.73;;;11.20;93.10;;;;;;10207296;29;20247;-90
2022/11/17 08:40:48;;;;;;;14.07;9.10;;;11.20;99.90;;;;;;10203945;29;20628;-90
2022/11/17 08:45:50;;;;;;;21.60;8.47;;;13.20;96.50;;;;;;10218289;29;20816;-89
2022/11/17 08:50:53;;;;;;;15.63;9.90;;;12.30;95.60;;;;;;10191360;29;20255;-90
2022/11/17 08:55:57;;;;;;;15.83;10.30;;;11.40;95.90;;;;;;10205656;29;20250;-89
2022/11/17 09:00:59;;;;;;;9.50;8.57;;;12.20;95.20;;;;;;10216023;28;20286;-89
2022/11/17 09:06:06;;;;;;;8.43;7.53;;;11.10;92.30;;;;;;10204543;29;20688;-90
2022/11/17 09:11:10;;;;;;;15.60;9.30;;;9.40;90.30;;;;;;10204420;28;20252;-90
2022/11/17 09:16:14;;;;;;;20.40;12.30;;;10.20;99.90;;;;;;10207359;29;20644;-90
2022/11/17 09:21:17;;;;;;;13.37;8.23;;;12.80;99.90;;;;;;10201447;29;20669;-90
2022/11/17 09:26:19;;;;;;;20.50;11.80;;;12.00;77.30;;;;;;10210318;29;20600;-91
2022/11/17 09:31:23;;;;;;;17.80;10.57;;;11.20;99.90;;;;;;10213224;29;20242;-90
2022/11/17 09:36:26;;;;;;;11.60;8.60;;;10.50;99.90;;;;;;10213099;29;20213;-90
2022/11/17 09:41:46;;;;;;;6.47;5.70;;;12.50;97.60;;;;;;10214852;29;20237;-90
2022/11/17 09:47:26;;;;;;;22.03;15.50;;;11.30;94.20;;;;;;10215555;29;20696;-91
2022/11/17 09:52:47;;;;;;;19.73;15.30;;;10.00;99.90;;;;;;10214393;29;20235;-90
2022/11/17 09:58:02;;;;;;;14.10;10.57;;;11.80;94.60;;;;;;10201002;29;20266;-90
2022/11/17 10:03:27;;;;;;;11.23;8.57;;;12.10;85.20;;;;;;10199358;29;20273;-90
2022/11/17 10:08:57;;;;;;;10.60;7.30;;;12.60;95.80;;;;;;10209197;29;20293;-90
2022/11/17 10:14:09;;;;;;;10.87;8.47;;;11.30;97.70;;;;;;10216756;29;20286;-90
2022/11/17 10:19:17;;;;;;;17.50;11.30;;;11.80;99.90;;;;;;10212229;29;20711;-91
2022/11/17 10:24:42;;;;;;;13.13;9.40;;;13.40;96.20;;;;;;10209962;29;20697;-91
2022/11/17 10:29:59;;;;;;;13.30;11.03;;;13.30;91.70;;;;;;10195626;29;20306;-90
2022/11/17 10:35:19;;;;;;;8.63;7.83;;;13.00;91.70;;;;;;10195745;29;20842;-90
2022/11/17 10:40:44;;;;;;;8.47;7.63;;;11.50;91.90;;;;;;10210591;29;20257;-91
2022/11/17 10:45:50;;;;;;;12.50;8.67;;;11.70;91.30;;;;;;10196180;29;20237;-91
2022/11/17 10:50:55;;;;;;;12.80;9.57;;;11.60;90.50;;;;;;10211807;29;20234;-91
2022/11/17 10:56:09;;;;;;;11.80;9.83;;;12.60;97.20;;;;;;10195237;29;20257;-91
2022/11/17 11:01:11;;;;;;;8.07;7.33;;;11.90;96.40;;;;;;10200215;29;20755;-91
2022/11/17 11:06:43;;;;;;;8.30;7.23;;;11.10;75.50;;;;;;10211833;29;20636;-91
2022/11/17 11:11:50;;;;;;;10.63;8.03;;;10.80;70.10;;;;;;10187921;29;20268;-91
2022/11/17 11:16:54;;;;;;;12.10;9.80;;;9.30;98.10;;;;;;10210314;29;20307;-91
2022/11/17 11:22:14;;;;;;;9.87;8.87;;;11.00;91.70;;;;;;10208712;29;20258;-91
2022/11/17 11:27:37;;;;;;;14.47;10.77;;;6.90;91.10;;;;;;10208067;29;20298;-90
2022/11/17 11:33:14;;;;;;;12.30;8.43;;;7.40;99.90;;;;;;10208306;29;20288;-90
2022/11/17 11:38:56;;;;;;;6.30;5.70;;;10.70;99.90;;;;;;10180393;29;20670;-90
2022/11/17 11:44:34;;;;;;;12.07;9.67;;;8.90;98.30;;;;;;10205484;29;20329;-90
2022/11/17 11:49:40;;;;;;;13.27;11.87;;;9.70;99.90;;;;;;10226793;29;20208;-90
2022/11/17 11:54:50;;;;;;;12.40;10.77;;;11.10;98.10;;;;;;10226049;29;20206;-89
2022/11/17 12:00:00;;;;;;;9.67;8.77;;;11.30;90.80;;;;;;10210841;29;20257;-90
2022/11/17 12:05:22;;;;;;;10.70;8.80;;;9.80;97.50;;;;;;10230326;28;20624;-90
2022/11/17 12:10:51;;;;;;;15.30;9.90;;;10.50;95.20;;;;;;10235842;28;20209;-90
2022/11/17 12:16:27;;;;;;;9.47;8.50;;;12.60;99.90;;;;;;10240329;28;20676;-89
2022/11/17 12:21:29;;;;;;;11.53;10.13;;;12.80;92.80;;;;;;10221799;29;20231;-90
2022/11/17 12:26:33;;;;;;;11.00;8.73;;;12.80;96.20;;;;;;10236682;28;20227;-90
2022/11/17 12:31:45;;;;;;;10.47;9.47;;;12.00;98.80;;;;;;10217084;29;20265;-90
2022/11/17 12:37:24;;;;;;;14.07;9.90;;;10.80;98.90;;;;;;10220107;29;20758;-90
2022/11/17 12:42:29;;;;;;;12.20;10.00;;;12.60;98.00;;;;;;10225664;29;20674;-90
2022/11/17 12:47:37;;;;;;;12.03;10.27;;;12.40;99.10;;;;;;10233394;28;20560;-90
2022/11/17 12:52:49;;;;;;;8.67;7.87;;;10.80;92.90;;;;;;10170873;29;20216;-90
2022/11/17 12:58:16;;;;;;;11.67;10.10;;;11.00;84.80;;;;;;10208503;29;20250;-90
2022/11/17 13:03:27;;;;;;;12.13;10.83;;;10.20;99.90;;;;;;10202697;29;20207;-89
2022/11/17 13:08:29;;;;;;;10.33;9.23;;;11.90;99.90;;;;;;10208856;29;20292;-90
2022/11/17 13:13:32;;;;;;;9.77;8.17;;;11.30;96.80;;;;;;10206229;29;20634;-90
2022/11/17 13:18:40;;;;;;;10.83;9.70;;;11.40;92.90;;;;;;10205049;29;20258;-89
2022/11/17 13:23:44;;;;;;;10.40;9.10;;;9.40;99.90;;;;;;10204535;29;20427;-90
2022/11/17 13:28:48;;;;;;;14.17;10.63;;;10.00;91.50;;;;;;10206377;29;20290;-89
2022/11/17 13:34:17;;;;;;;24.50;16.63;;;9.00;99.90;;;;;;10198111;29;20268;-89
2022/11/17 13:39:20;;;;;;;17.93;13.10;;;8.10;99.90;;;;;;10201768;29;20283;-90
2022/11/17 13:44:29;;;;;;;25.43;16.97;;;7.70;99.90;;;;;;10207087;29;20692;-90
2022/11/17 13:49:33;;;;;;;16.10;11.50;;;6.20;99.40;;;;;;10219060;29;20290;-90
2022/11/17 13:54:35;;;;;;;14.53;11.67;;;6.80;99.90;;;;;;10205130;29;20230;-90
2022/11/17 13:59:38;;;;;;;13.10;10.80;;;8.20;99.90;;;;;;10201388;29;20705;-91
2022/11/17 14:05:01;;;;;;;11.97;10.23;;;7.40;99.90;;;;;;10175350;29;20643;-90
2022/11/17 14:10:19;;;;;;;13.13;10.47;;;10.20;99.90;;;;;;10199138;29;20226;-90
2022/11/17 14:15:27;;;;;;;11.63;9.97;;;11.40;99.90;;;;;;10205223;29;20229;-92
2022/11/17 14:20:32;;;;;;;12.07;10.80;;;7.70;99.90;;;;;;10212202;29;20282;-92
2022/11/17 14:25:38;;;;;;;16.40;12.23;;;8.70;91.40;;;;;;10212465;29;20199;-91
2022/11/17 14:30:41;;;;;;;16.43;13.40;;;8.10;99.90;;;;;;10209241;29;20287;-91
2022/11/17 14:35:46;;;;;;;14.67;11.80;;;8.80;99.90;;;;;;10219468;29;20278;-91
2022/11/17 14:40:50;;;;;;;32.80;19.13;;;7.40;93.90;;;;;;10211420;29;20254;-90
2022/11/17 14:45:53;;;;;;;43.77;24.30;;;7.80;92.20;;;;;;10212612;29;20717;-91
2022/11/17 14:50:57;;;;;;;52.87;28.73;;;5.60;99.90;;;;;;10211900;29;20644;-91
2022/11/17 14:56:06;;;;;;;17.47;12.57;;;4.60;99.90;;;;;;10210874;29;20305;-91
2022/11/17 15:01:14;;;;;;;16.43;11.87;;;4.60;99.90;;;;;;10211305;29;20254;-90
2022/11/17 15:06:16;;;;;;;13.87;11.23;;;6.40;99.90;;;;;;10214680;29;20735;-91
2022/11/17 15:11:22;;;;;;;13.90;11.10;;;7.80;99.90;;;;;;10201317;29;20271;-91
2022/11/17 15:16:25;;;;;;;18.73;13.00;;;8.90;97.20;;;;;;10184272;29;20283;-91
2022/11/17 15:21:27;;;;;;;17.43;12.33;;;10.00;95.40;;;;;;10210873;29;20254;-91
2022/11/17 15:26:30;;;;;;;14.60;11.77;;;9.20;99.90;;;;;;10209873;29;20233;-91
2022/11/17 15:31:32;;;;;;;18.43;13.37;;;9.50;90.90;;;;;;10210050;29;20812;-90
2022/11/17 15:36:35;;;;;;;17.53;12.90;;;8.80;99.90;;;;;;10192843;29;20238;-90
2022/11/17 15:41:37;;;;;;;13.50;12.10;;;10.50;99.90;;;;;;10187235;29;20247;-92
2022/11/17 15:46:40;;;;;;;16.90;12.83;;;10.20;86.30;;;;;;10203198;29;20253;-89
2022/11/17 15:51:48;;;;;;;18.60;15.73;;;10.70;97.50;;;;;;10208397;29;20242;-89
2022/11/17 15:56:51;;;;;;;67.23;36.40;;;10.00;99.90;;;;;;9527819;29;10000613;-89
2022/11/17 16:01:53;;;;;;;18.63;14.47;;;8.30;96.80;;;;;;10202886;29;20702;-89
2022/11/17 16:06:56;;;;;;;19.17;14.03;;;9.80;99.90;;;;;;10209252;29;20581;-90
2022/11/17 16:11:59;;;;;;;15.90;12.30;;;10.60;99.90;;;;;;10210412;29;20203;-89
2022/11/17 16:17:01;;;;;;;17.80;11.90;;;10.50;95.90;;;;;;10209694;29;20678;-90
2022/11/17 16:22:04;;;;;;;17.63;12.60;;;8.00;99.90;;;;;;10208615;29;20201;-90
2022/11/17 16:27:06;;;;;;;18.67;14.10;;;10.00;98.30;;;;;;10207391;29;20249;-90
2022/11/17 16:32:08;;;;;;;20.27;14.00;;;9.40;99.90;;;;;;10209593;29;20241;-90
2022/11/17 16:37:12;;;;;;;27.57;16.13;;;9.80;99.90;;;;;;10171800;29;20790;-90
2022/11/17 16:42:14;;;;;;;20.63;14.67;;;10.40;97.80;;;;;;10195130;29;20314;-90
2022/11/17 16:47:17;;;;;;;15.90;12.17;;;8.60;99.90;;;;;;10208991;29;20760;-90
2022/11/17 16:52:19;;;;;;;16.13;12.37;;;8.90;98.30;;;;;;10208266;29;20242;-90
2022/11/17 16:57:22;;;;;;;19.33;14.87;;;8.00;99.90;;;;;;10182292;29;20315;-90
2022/11/17 17:02:24;;;;;;;19.50;14.90;;;8.70;99.90;;;;;;10207939;29;20236;-91
2022/11/17 17:07:27;;;;;;;24.77;15.80;;;7.40;98.90;;;;;;10206459;29;20211;-91
2022/11/17 17:12:30;;;;;;;26.10;16.10;;;5.60;99.90;;;;;;10207769;29;20235;-91
2022/11/17 17:17:32;;;;;;;130.83;68.13;;;7.60;99.90;;;;;;10207520;29;20321;-91
2022/11/17 17:22:35;;;;;;;108.80;48.00;;;5.70;97.00;;;;;;10203399;29;20320;-91
2022/11/17 17:27:37;;;;;;;72.60;39.70;;;3.10;99.90;;;;;;10201093;29;20302;-91
2022/11/17 17:32:40;;;;;;;49.67;26.43;;;3.00;99.90;;;;;;10202776;29;20779;-92
2022/11/17 17:37:42;;;;;;;114.43;50.20;;;4.80;99.90;;;;;;10202789;29;20693;-91
2022/11/17 17:42:44;;;;;;;58.50;28.60;;;5.00;99.90;;;;;;10201776;29;20657;-91
2022/11/17 17:47:47;;;;;;;47.07;24.83;;;4.10;99.90;;;;;;10203389;29;20230;-91
2022/11/17 17:52:49;;;;;;;64.53;31.53;;;3.90;99.90;;;;;;10210390;29;20258;-93
2022/11/17 17:57:52;;;;;;;48.77;23.00;;;8.90;99.90;;;;;;10214600;29;20647;-92
2022/11/17 18:02:54;;;;;;;41.33;19.23;;;5.70;86.50;;;;;;10214782;29;20239;-92
2022/11/17 18:07:57;;;;;;;36.42;21.17;;;2.70;99.90;;;;;;10204501;29;20523;-92
2022/11/17 18:12:59;;;;;;;28.90;20.92;;;2.30;99.90;;;;;;10212754;29;20433;-92
2022/11/17 18:18:02;;;;;;;58.43;21.90;;;1.30;99.90;;;;;;10229069;29;20301;-91
2022/11/17 18:23:04;;;;;;;32.33;17.43;;;1.80;99.90;;;;;;10208622;29;20657;-91
2022/11/17 18:28:07;;;;;;;28.77;16.97;;;2.20;99.90;;;;;;10203563;29;20202;-91
2022/11/17 18:33:09;;;;;;;28.80;16.30;;;1.20;99.90;;;;;;10209273;29;20262;-91
2022/11/17 18:38:12;;;;;;;22.67;15.60;;;2.10;99.90;;;;;;10212477;29;20450;-93
2022/11/17 18:43:14;;;;;;;30.37;15.47;;;2.50;99.90;;;;;;10212423;29;20234;-93
2022/11/17 18:48:17;;;;;;;28.47;16.37;;;2.50;99.90;;;;;;10211485;29;20235;-92
2022/11/17 18:53:19;;;;;;;27.40;16.80;;;3.80;99.90;;;;;;10209764;29;20266;-92
2022/11/17 18:58:22;;;;;;;24.40;16.73;;;3.70;99.90;;;;;;10206623;29;20251;-92
2022/11/17 19:03:25;;;;;;;26.87;15.77;;;4.00;99.90;;;;;;10211145;29;20692;-91
2022/11/17 19:08:29;;;;;;;26.13;15.80;;;7.30;99.90;;;;;;10209876;29;20238;-92
2022/11/17 19:13:33;;;;;;;24.83;15.87;;;6.10;99.90;;;;;;10195751;29;20239;-91
2022/11/17 19:18:36;;;;;;;25.87;16.87;;;5.00;99.90;;;;;;10218116;29;20271;-90
2022/11/17 19:23:40;;;;;;;22.30;16.47;;;5.00;99.90;;;;;;10195319;29;20211;-89
2022/11/17 19:28:47;;;;;;;22.80;15.87;;;3.60;99.90;;;;;;10191266;29;20216;-90
2022/11/17 19:33:49;;;;;;;23.50;15.93;;;4.50;99.90;;;;;;10213788;28;20239;-90
2022/11/17 19:38:54;;;;;;;26.00;16.17;;;5.70;99.90;;;;;;10198192;29;20670;-91
2022/11/17 19:43:59;;;;;;;28.13;18.13;;;8.10;99.90;;;;;;10211562;29;20267;-91
2022/11/17 19:49:02;;;;;;;31.17;16.13;;;9.10;99.90;;;;;;10207833;29;20211;-91
2022/11/17 19:54:07;;;;;;;24.97;15.37;;;7.20;99.90;;;;;;10209782;29;20290;-91
2022/11/17 19:59:09;;;;;;;24.37;16.67;;;7.80;99.90;;;;;;10208777;29;20247;-91
2022/11/17 20:04:17;;;;;;;23.70;16.57;;;9.70;99.90;;;;;;10201145;29;20631;-91
2022/11/17 20:09:20;;;;;;;29.30;17.17;;;7.50;99.90;;;;;;10206186;29;20270;-91
2022/11/17 20:14:22;;;;;;;25.33;18.07;;;9.60;99.90;;;;;;10207847;29;20628;-91
2022/11/17 20:19:26;;;;;;;25.80;16.87;;;6.00;99.90;;;;;;10206823;29;20250;-91
2022/11/17 20:24:29;;;;;;;36.03;20.00;;;6.60;99.90;;;;;;10219135;29;20242;-91
2022/11/17 20:29:31;;;;;;;35.43;18.93;;;3.30;99.90;;;;;;10201380;29;20271;-91
2022/11/17 20:34:33;;;;;;;32.53;18.97;;;4.30;99.90;;;;;;10189889;29;20726;-91
2022/11/17 20:39:36;;;;;;;27.63;16.57;;;4.50;99.90;;;;;;10204425;29;20294;-91
2022/11/17 20:44:38;;;;;;;22.13;15.80;;;4.50;99.90;;;;;;10206229;29;20278;-91
2022/11/17 20:49:41;;;;;;;32.33;18.87;;;4.70;99.10;;;;;;10206732;29;20301;-91
2022/11/17 20:54:43;;;;;;;39.03;19.17;;;2.90;99.90;;;;;;10208168;29;20283;-91
2022/11/17 20:59:46;;;;;;;32.27;18.30;;;2.10;99.90;;;;;;10219045;28;20262;-91
2022/11/17 21:04:48;;;;;;;23.20;16.37;;;2.40;99.90;;;;;;10198906;29;20267;-91
2022/11/17 21:09:51;;;;;;;80.03;36.93;;;1.70;99.90;;;;;;10201502;29;20246;-91
2022/11/17 21:14:53;;;;;;;47.00;21.63;;;1.30;99.90;;;;;;10202660;29;20695;-90
2022/11/17 21:19:56;;;;;;;29.13;17.60;;;1.20;99.90;;;;;;10217800;28;20270;-90
2022/11/17 21:24:58;;;;;;;31.13;18.73;;;1.00;99.90;;;;;;10207237;29;20266;-90
2022/11/17 21:30:01;;;;;;;29.03;17.70;;;3.00;99.90;;;;;;10197716;29;20266;-91
2022/11/17 21:35:05;;;;;;;33.87;19.90;;;6.30;99.90;;;;;;10210185;29;20671;-90
2022/11/17 21:40:08;;;;;;;33.93;19.33;;;4.80;99.90;;;;;;10212967;29;20775;-91
2022/11/17 21:45:10;;;;;;;25.03;18.03;;;6.80;99.90;;;;;;10205928;29;20246;-91
2022/11/17 21:50:13;;;;;;;28.33;18.37;;;4.90;99.90;;;;;;10209251;29;20207;-90
2022/11/17 21:55:18;;;;;;;29.77;18.20;;;2.00;99.90;;;;;;10210851;29;20238;-91
2022/11/17 22:00:21;;;;;;;34.67;19.93;;;2.10;99.90;;;;;;10211743;29;20258;-91
2022/11/17 22:05:23;;;;;;;32.17;19.00;;;2.10;99.90;;;;;;10212059;29;20645;-91
2022/11/17 22:10:25;;;;;;;34.20;19.50;;;1.80;99.90;;;;;;10222317;29;20234;-90
2022/11/17 22:15:28;;;;;;;35.90;18.93;;;3.00;99.90;;;;;;10203544;29;20238;-91
2022/11/17 22:20:30;;;;;;;34.47;20.53;;;5.40;99.90;;;;;;10209088;29;20259;-91
2022/11/17 22:25:33;;;;;;;32.57;20.03;;;7.20;99.90;;;;;;10210884;29;20219;-91
2022/11/17 22:30:51;;;;;;;27.70;18.83;;;7.10;96.80;;;;;;10224002;29;20278;-90
2022/11/17 22:35:58;;;;;;;32.23;20.13;;;9.40;87.80;;;;;;10207355;28;20703;-91
2022/11/17 22:41:03;;;;;;;32.30;20.37;;;4.20;99.70;;;;;;10206274;29;20250;-91
2022/11/17 22:46:09;;;;;;;31.60;19.90;;;3.40;99.90;;;;;;10209970;29;20249;-90
2022/11/17 22:52:01;;;;;;;31.87;19.10;;;2.60;99.90;;;;;;10204430;29;20910;-90
2022/11/17 22:56:35;;;;;;;33.47;19.60;;;1.60;99.90;;;;;;10209931;29;20266;-91
2022/11/17 23:01:37;;;;;;;36.27;19.03;;;4.40;99.90;;;;;;10211491;29;20709;-91
2022/11/17 23:06:40;;;;;;;32.83;19.03;;;4.50;99.90;;;;;;10206163;29;20234;-91
2022/11/17 23:11:43;;;;;;;35.47;21.53;;;5.90;99.90;;;;;;10210471;29;20300;-91
2022/11/17 23:16:45;;;;;;;36.67;20.43;;;2.70;99.90;;;;;;10217491;29;20223;-90
2022/11/17 23:21:47;;;;;;;37.43;20.83;;;2.40;99.90;;;;;;10202699;29;20246;-91
2022/11/17 23:26:50;;;;;;;46.93;23.40;;;0.90;99.90;;;;;;10209508;29;20242;-90
2022/11/17 23:31:52;;;;;;;37.20;21.07;;;1.40;99.90;;;;;;10208908;29;20265;-90
2022/11/17 23:36:55;;;;;;;39.33;22.00;;;1.00;99.90;;;;;;10211456;29;20250;-90
2022/11/17 23:42:04;;;;;;;32.60;19.13;;;0.80;99.90;;;;;;10190903;29;20307;-90
2022/11/17 23:47:07;;;;;;;36.10;21.00;;;1.60;99.90;;;;;;10208702;29;20207;-90
2022/11/17 23:52:09;;;;;;;32.43;19.73;;;1.20;99.90;;;;;;10209851;29;20306;-90
2022/11/17 23:57:12;;;;;;;38.83;21.40;;;2.00;99.90;;;;;;10206030;29;20243;-90
